sim
Sign-in with your pilot id or email,
or register
Callsign
Passwort

Schedule Details

Flight Number: RYR4774 (4)
Departure: Milan Bergamo Il Caravaggio International Airport (LIME) at 18:00
Arrival: Thessaloniki International Airport (LGTS) at 20:05
Route: Ryanair Passenger Schedule. Enter filed route here before submitting Pirep.

Weather Information
Getting current METAR information for LIME 211550Z 18004KT 150V210 5000 BR NSC 14/05 Q1025 NOSIG
Getting current METAR information for LGTS 211550Z 35005KT CAVOK 14/00 Q1021 NOSIG

Schedule Frequency

Route Map